Time;durP1;ratioP1;P1;durP2;ratioP2;P2;SDS_P1;SDS_P2;PMS_P1;PMS_P2;Temp;Humidity;BMP_temperature;BMP_pressure;BME280_temperature;BME280_humidity;BME280_pressure;Samples;Min_cycle;Max_cycle;Signal;HPM_P1;HPM_P2
2023/12/14 00:02:18;;;;;;;1.95;1.85;;;16.00;63.90;;;;;;5052653;28;20174;-61
2023/12/14 00:04:44;;;;;;;1.83;1.52;;;16.00;64.00;;;;;;5052351;28;20242;-61
2023/12/14 00:07:10;;;;;;;1.80;1.70;;;16.00;63.90;;;;;;5053141;28;20586;-61
2023/12/14 00:09:36;;;;;;;1.95;1.77;;;16.00;64.00;;;;;;5052722;28;20225;-62
2023/12/14 00:12:01;;;;;;;1.60;1.50;;;16.00;63.90;;;;;;5052163;28;20168;-61
2023/12/14 00:14:27;;;;;;;2.00;1.90;;;15.90;63.80;;;;;;5052578;28;20183;-61
2023/12/14 00:16:53;;;;;;;2.00;1.90;;;16.00;64.00;;;;;;5052643;28;20216;-61
2023/12/14 00:19:18;;;;;;;1.90;1.67;;;15.90;64.00;;;;;;5051967;28;20552;-60
2023/12/14 00:21:44;;;;;;;2.00;1.77;;;16.00;63.90;;;;;;5052865;28;20221;-61
2023/12/14 00:24:09;;;;;;;2.35;2.15;;;15.90;64.00;;;;;;5052797;28;20244;-61
2023/12/14 00:26:35;;;;;;;1.80;1.70;;;15.90;64.00;;;;;;5051723;28;20179;-61
2023/12/14 00:29:00;;;;;;;2.00;1.90;;;15.90;63.90;;;;;;5052595;28;20179;-61
2023/12/14 00:31:26;;;;;;;1.90;1.80;;;15.90;63.80;;;;;;5052085;28;20175;-62
2023/12/14 00:33:51;;;;;;;1.98;1.88;;;15.90;63.80;;;;;;5051864;28;20218;-61
2023/12/14 00:36:20;;;;;;;1.92;1.77;;;15.90;63.80;;;;;;5052217;28;20632;-61
2023/12/14 00:38:46;;;;;;;1.85;1.75;;;15.90;63.90;;;;;;5051748;28;20179;-61
2023/12/14 00:41:12;;;;;;;1.88;1.77;;;15.90;63.90;;;;;;5051694;28;20179;-61
2023/12/14 00:43:38;;;;;;;1.88;1.77;;;15.90;63.90;;;;;;5052062;28;20225;-61
2023/12/14 00:46:03;;;;;;;2.20;2.00;;;15.90;63.90;;;;;;5052236;28;20217;-61
2023/12/14 00:48:29;;;;;;;2.00;1.90;;;15.90;64.00;;;;;;5051218;28;20179;-61
2023/12/14 00:50:54;;;;;;;2.42;2.13;;;15.90;64.00;;;;;;5052378;28;20171;-61
2023/12/14 00:53:20;;;;;;;1.90;1.80;;;15.90;64.00;;;;;;5051825;28;20237;-62
2023/12/14 00:55:45;;;;;;;2.10;2.00;;;15.90;63.90;;;;;;5051262;28;20308;-62
2023/12/14 00:58:12;;;;;;;2.03;1.92;;;15.90;63.90;;;;;;5052162;28;20645;-61
2023/12/14 01:00:38;;;;;;;1.95;1.85;;;15.90;63.90;;;;;;5051015;28;20180;-61
2023/12/14 01:03:04;;;;;;;2.00;1.90;;;15.90;63.90;;;;;;5052305;28;20232;-61
2023/12/14 01:05:29;;;;;;;2.28;2.13;;;15.80;64.70;;;;;;5050807;28;20210;-61
2023/12/14 01:07:55;;;;;;;1.85;1.75;;;15.80;63.90;;;;;;5051338;28;20175;-61
2023/12/14 01:10:20;;;;;;;2.03;1.90;;;15.80;63.80;;;;;;5051821;28;20193;-61
2023/12/14 01:12:49;;;;;;;2.20;2.00;;;15.80;63.90;;;;;;5051895;28;20570;-61
2023/12/14 01:15:14;;;;;;;1.98;1.88;;;15.80;63.90;;;;;;5050727;28;20171;-60
2023/12/14 01:17:40;;;;;;;2.22;2.10;;;15.80;63.90;;;;;;5051817;28;20179;-60
2023/12/14 01:20:06;;;;;;;2.40;2.20;;;15.80;64.00;;;;;;5052074;28;20216;-60
2023/12/14 01:22:32;;;;;;;2.67;2.30;;;15.80;63.90;;;;;;5050927;28;20187;-60
2023/12/14 01:24:59;;;;;;;2.00;1.90;;;15.80;63.80;;;;;;5051903;28;20553;-60
2023/12/14 01:27:24;;;;;;;2.40;2.20;;;15.80;63.80;;;;;;5051365;28;20701;-60
2023/12/14 01:29:50;;;;;;;2.20;2.05;;;15.80;63.70;;;;;;5050991;28;20179;-61
2023/12/14 01:32:15;;;;;;;2.35;2.15;;;15.80;63.70;;;;;;5051608;28;20182;-61
2023/12/14 01:34:41;;;;;;;2.03;1.90;;;15.80;63.90;;;;;;5051857;28;20191;-60
2023/12/14 01:37:06;;;;;;;2.72;2.22;;;15.80;63.70;;;;;;5051166;28;20174;-61
2023/12/14 01:39:32;;;;;;;2.28;2.17;;;15.70;63.60;;;;;;5051289;28;20182;-61
2023/12/14 01:41:58;;;;;;;2.13;1.88;;;15.80;63.60;;;;;;5051724;28;20179;-61
2023/12/14 01:44:23;;;;;;;1.98;1.88;;;15.80;63.70;;;;;;5050647;28;20175;-61
2023/12/14 01:46:49;;;;;;;2.10;2.00;;;15.80;63.70;;;;;;5051762;28;20172;-61
2023/12/14 01:49:14;;;;;;;1.90;1.80;;;15.70;63.60;;;;;;5051272;28;20170;-61
2023/12/14 01:51:40;;;;;;;2.05;1.85;;;15.70;63.60;;;;;;5054220;28;20183;-61
2023/12/14 01:54:06;;;;;;;1.98;1.88;;;15.70;63.70;;;;;;5055280;28;20812;-61
2023/12/14 01:56:31;;;;;;;2.20;2.10;;;15.70;63.70;;;;;;5055162;28;20175;-61
2023/12/14 01:58:57;;;;;;;2.03;1.92;;;15.70;63.60;;;;;;5054584;28;20175;-60
2023/12/14 02:01:23;;;;;;;2.35;2.20;;;15.70;63.60;;;;;;5055169;28;20171;-60
2023/12/14 02:03:50;;;;;;;2.20;2.00;;;15.70;63.60;;;;;;5055480;28;20206;-61
2023/12/14 02:06:16;;;;;;;2.13;2.03;;;15.70;63.60;;;;;;5054315;28;20182;-61
2023/12/14 02:08:41;;;;;;;2.50;1.90;;;15.70;63.60;;;;;;5055300;28;20167;-61
2023/12/14 02:11:07;;;;;;;1.67;1.58;;;15.70;63.80;;;;;;5054419;28;20181;-61
2023/12/14 02:13:33;;;;;;;2.00;1.85;;;15.70;63.70;;;;;;5054634;28;20570;-60
2023/12/14 02:15:58;;;;;;;2.42;2.17;;;15.60;63.80;;;;;;5054926;28;20278;-60
2023/12/14 02:18:24;;;;;;;1.88;1.77;;;15.70;63.70;;;;;;5054115;28;20171;-60
2023/12/14 02:20:49;;;;;;;1.90;1.80;;;15.70;63.60;;;;;;5055081;28;20276;-60
2023/12/14 02:23:15;;;;;;;2.10;1.88;;;15.60;63.50;;;;;;5054551;28;20665;-61
2023/12/14 02:25:40;;;;;;;2.03;1.92;;;15.70;63.60;;;;;;5054070;28;20179;-60
2023/12/14 02:28:06;;;;;;;2.08;1.90;;;15.60;63.50;;;;;;5054788;28;20182;-60
2023/12/14 02:30:31;;;;;;;2.00;1.90;;;15.60;63.50;;;;;;5054370;28;20179;-61
2023/12/14 02:32:57;;;;;;;2.13;2.03;;;15.60;63.50;;;;;;5054071;28;20211;-61
2023/12/14 02:35:22;;;;;;;2.00;1.90;;;15.70;63.50;;;;;;5054308;28;20634;-61
2023/12/14 02:37:48;;;;;;;2.13;2.03;;;15.60;63.50;;;;;;5054498;28;20179;-61
2023/12/14 02:40:13;;;;;;;1.90;1.80;;;15.60;63.50;;;;;;5053648;28;20174;-61
2023/12/14 02:42:39;;;;;;;1.75;1.65;;;15.60;63.40;;;;;;5054521;28;20167;-61
2023/12/14 02:45:07;;;;;;;2.50;2.05;;;15.60;63.50;;;;;;5054492;28;20504;-61
2023/12/14 02:47:32;;;;;;;2.35;2.15;;;15.60;63.50;;;;;;5053630;28;20186;-61
2023/12/14 02:49:58;;;;;;;2.03;1.92;;;15.60;63.50;;;;;;5054495;28;20179;-60
2023/12/14 02:52:23;;;;;;;2.17;1.98;;;15.60;63.40;;;;;;5054123;28;20211;-61
2023/12/14 02:54:49;;;;;;;1.90;1.80;;;15.60;63.40;;;;;;5053476;28;20231;-61
2023/12/14 02:57:14;;;;;;;2.30;2.10;;;15.60;63.50;;;;;;5053896;28;20182;-61
2023/12/14 02:59:40;;;;;;;1.92;1.83;;;15.60;63.50;;;;;;5054208;28;20181;-61
2023/12/14 03:02:05;;;;;;;1.83;1.73;;;15.60;63.50;;;;;;5052290;28;20217;-60
2023/12/14 03:04:31;;;;;;;1.88;1.77;;;15.60;63.60;;;;;;5053759;28;20175;-60
2023/12/14 03:06:57;;;;;;;1.80;1.70;;;15.60;63.50;;;;;;5053926;28;20182;-60
2023/12/14 03:09:22;;;;;;;1.90;1.80;;;15.60;63.50;;;;;;5053133;28;20179;-61
2023/12/14 03:11:48;;;;;;;2.10;2.00;;;15.60;63.50;;;;;;5053939;28;20175;-61
2023/12/14 03:14:14;;;;;;;2.00;1.90;;;15.60;63.60;;;;;;5053171;28;20199;-60
2023/12/14 03:16:39;;;;;;;1.92;1.83;;;15.60;63.50;;;;;;5053792;28;20540;-60
2023/12/14 03:19:05;;;;;;;2.00;1.80;;;15.60;63.50;;;;;;5053962;28;20176;-61
2023/12/14 03:21:30;;;;;;;1.90;1.80;;;15.60;63.40;;;;;;5052869;28;20549;-60
2023/12/14 03:23:56;;;;;;;2.28;2.08;;;15.50;63.40;;;;;;5053663;28;20660;-60
2023/12/14 03:26:21;;;;;;;2.88;2.10;;;15.50;63.50;;;;;;5053377;28;20179;-61
2023/12/14 03:28:47;;;;;;;1.90;1.80;;;15.60;63.60;;;;;;5052914;28;20190;-61
2023/12/14 03:31:13;;;;;;;2.05;1.95;;;15.50;63.50;;;;;;5053551;28;20179;-61
2023/12/14 03:33:39;;;;;;;1.77;1.67;;;15.50;63.50;;;;;;5053286;28;20214;-60
2023/12/14 03:36:04;;;;;;;1.90;1.80;;;15.50;63.40;;;;;;5052830;28;20171;-61
2023/12/14 03:38:31;;;;;;;2.00;1.90;;;15.50;63.50;;;;;;5053308;28;20542;-61
2023/12/14 03:40:56;;;;;;;1.88;1.77;;;15.50;63.50;;;;;;5053536;28;20187;-60
2023/12/14 03:43:22;;;;;;;1.80;1.70;;;15.50;63.50;;;;;;5052262;28;20664;-61
2023/12/14 03:45:47;;;;;;;2.33;2.13;;;15.50;63.40;;;;;;5053493;28;20185;-61
2023/12/14 03:48:13;;;;;;;1.92;1.83;;;15.50;63.40;;;;;;5053389;28;20172;-61
2023/12/14 03:50:38;;;;;;;2.22;2.05;;;15.50;63.50;;;;;;5052665;28;20515;-61
2023/12/14 03:53:04;;;;;;;1.92;1.80;;;15.50;63.40;;;;;;5053233;28;20210;-61
2023/12/14 03:55:29;;;;;;;1.95;1.85;;;15.50;63.40;;;;;;5052370;28;20223;-61
2023/12/14 03:57:55;;;;;;;1.95;1.85;;;15.50;63.50;;;;;;5052312;28;20179;-61
2023/12/14 04:00:21;;;;;;;1.67;1.58;;;15.50;63.50;;;;;;5052891;28;20187;-60
2023/12/14 04:02:46;;;;;;;1.85;1.75;;;15.50;63.50;;;;;;5052937;28;20183;-60
2023/12/14 04:05:12;;;;;;;1.73;1.63;;;15.50;63.50;;;;;;5052396;28;20171;-61
2023/12/14 04:07:40;;;;;;;1.80;1.70;;;15.50;63.40;;;;;;5052592;28;20674;-61
2023/12/14 04:10:07;;;;;;;2.00;1.90;;;15.50;63.50;;;;;;5052817;28;20193;-61
2023/12/14 04:12:33;;;;;;;1.80;1.70;;;15.50;63.40;;;;;;5051720;28;20210;-61
2023/12/14 04:14:58;;;;;;;1.60;1.50;;;15.50;63.40;;;;;;5052899;28;20171;-60
2023/12/14 04:17:24;;;;;;;1.92;1.83;;;15.40;63.30;;;;;;5052405;28;20537;-61
2023/12/14 04:19:50;;;;;;;2.08;1.88;;;15.40;63.40;;;;;;5052121;28;20217;-60
2023/12/14 04:22:15;;;;;;;2.00;1.90;;;15.40;63.60;;;;;;5052318;28;20171;-61
2023/12/14 04:24:41;;;;;;;1.63;1.52;;;15.40;63.40;;;;;;5051932;28;20183;-61
2023/12/14 04:27:06;;;;;;;2.03;1.73;;;15.40;63.30;;;;;;5052451;28;20177;-60
2023/12/14 04:29:32;;;;;;;1.80;1.70;;;15.40;63.30;;;;;;5052454;28;20197;-61
2023/12/14 04:31:57;;;;;;;1.90;1.80;;;15.40;63.30;;;;;;5051717;28;20594;-61
2023/12/14 04:34:23;;;;;;;1.77;1.67;;;15.40;63.30;;;;;;5051840;28;20211;-61
2023/12/14 04:36:48;;;;;;;1.80;1.70;;;15.40;63.30;;;;;;5052318;28;20172;-61
2023/12/14 04:39:14;;;;;;;1.90;1.80;;;15.40;63.20;;;;;;5051389;28;20186;-61
2023/12/14 04:41:39;;;;;;;1.98;1.88;;;15.40;63.30;;;;;;5052241;28;20654;-61
2023/12/14 04:44:05;;;;;;;1.80;1.70;;;15.40;63.30;;;;;;5052559;28;20167;-61
2023/12/14 04:46:30;;;;;;;1.48;1.38;;;15.40;63.30;;;;;;5051282;28;20187;-61
2023/12/14 04:48:56;;;;;;;1.92;1.83;;;15.40;63.30;;;;;;5052498;28;20216;-61
2023/12/14 04:51:21;;;;;;;1.80;1.70;;;15.40;63.40;;;;;;5052056;28;20179;-61
2023/12/14 04:53:47;;;;;;;1.50;1.42;;;15.40;63.40;;;;;;5051264;28;20207;-61
2023/12/14 04:56:13;;;;;;;2.08;1.70;;;15.40;63.30;;;;;;5052248;28;20175;-62
2023/12/14 04:58:39;;;;;;;2.13;1.83;;;15.40;63.40;;;;;;5052048;28;20290;-62
2023/12/14 05:01:05;;;;;;;1.70;1.60;;;15.30;63.40;;;;;;5051330;28;20263;-60
2023/12/14 05:03:31;;;;;;;1.70;1.55;;;15.40;63.30;;;;;;5051669;28;20229;-61
2023/12/14 05:05:56;;;;;;;1.70;1.60;;;15.40;63.40;;;;;;5052059;28;20209;-61
2023/12/14 05:08:22;;;;;;;1.80;1.70;;;15.40;63.40;;;;;;5050964;28;20171;-61
2023/12/14 05:10:47;;;;;;;1.88;1.77;;;15.40;63.40;;;;;;5051889;28;20171;-61
2023/12/14 05:13:13;;;;;;;1.52;1.42;;;15.40;63.40;;;;;;5052033;28;20210;-60
2023/12/14 05:15:38;;;;;;;1.65;1.55;;;15.30;63.50;;;;;;5051325;28;20221;-61
2023/12/14 05:18:04;;;;;;;1.85;1.75;;;15.30;63.40;;;;;;5051937;28;20185;-60
2023/12/14 05:20:30;;;;;;;1.52;1.42;;;15.30;63.40;;;;;;5051492;28;20638;-61
2023/12/14 05:22:55;;;;;;;1.63;1.52;;;15.30;63.50;;;;;;5051185;28;20171;-61
2023/12/14 05:25:21;;;;;;;1.50;1.40;;;15.30;64.30;;;;;;5052673;28;20587;-61
2023/12/14 05:27:46;;;;;;;1.75;1.65;;;15.30;63.50;;;;;;5056016;28;20224;-61
2023/12/14 05:30:12;;;;;;;1.70;1.60;;;15.30;63.60;;;;;;5055137;28;20171;-62
2023/12/14 05:32:37;;;;;;;1.58;1.48;;;15.30;63.50;;;;;;5055502;28;20251;-61
2023/12/14 05:35:03;;;;;;;1.88;1.77;;;15.30;63.50;;;;;;5055063;28;20170;-62
2023/12/14 05:37:29;;;;;;;1.65;1.55;;;15.30;63.50;;;;;;5055484;28;20194;-61
2023/12/14 05:39:54;;;;;;;1.80;1.70;;;15.30;63.40;;;;;;5055644;28;20254;-61
2023/12/14 05:42:20;;;;;;;1.80;1.70;;;15.30;63.40;;;;;;5054887;28;20277;-61
2023/12/14 05:44:45;;;;;;;1.75;1.63;;;15.30;63.40;;;;;;5055727;28;20589;-61
2023/12/14 05:47:11;;;;;;;2.35;2.00;;;15.30;63.40;;;;;;5055768;28;20179;-61
2023/12/14 05:49:37;;;;;;;1.80;1.70;;;15.30;63.40;;;;;;5054604;28;20520;-61
2023/12/14 05:52:03;;;;;;;2.15;2.05;;;15.30;63.40;;;;;;5054187;28;20198;-61
2023/12/14 05:54:28;;;;;;;1.75;1.65;;;15.20;63.40;;;;;;5054831;28;20697;-61
2023/12/14 05:56:54;;;;;;;1.92;1.70;;;15.30;63.40;;;;;;5054875;28;20179;-60
2023/12/14 05:59:19;;;;;;;1.60;1.50;;;15.30;63.50;;;;;;5055287;28;20540;-61
2023/12/14 06:01:45;;;;;;;1.90;1.80;;;15.30;63.50;;;;;;5055378;28;20533;-60
2023/12/14 06:04:10;;;;;;;1.80;1.70;;;15.30;63.50;;;;;;5054624;28;20666;-61
2023/12/14 06:06:39;;;;;;;1.40;1.30;;;15.20;63.40;;;;;;5054920;28;20175;-61
2023/12/14 06:09:07;;;;;;;1.80;1.70;;;15.30;63.60;;;;;;5055164;28;20237;-61
2023/12/14 06:11:32;;;;;;;2.83;1.85;;;15.30;63.60;;;;;;5054295;28;20188;-61
2023/12/14 06:13:59;;;;;;;1.45;1.35;;;15.30;63.40;;;;;;5055224;28;20214;-61
2023/12/14 06:16:25;;;;;;;1.50;1.40;;;15.30;63.30;;;;;;5054814;28;20581;-60
2023/12/14 06:18:50;;;;;;;1.90;1.80;;;15.40;63.30;;;;;;5054273;28;21014;-60
2023/12/14 06:21:16;;;;;;;2.13;1.50;;;15.40;63.20;;;;;;5054660;28;20205;-61
2023/12/14 06:23:41;;;;;;;1.50;1.40;;;15.40;63.20;;;;;;5054779;28;20179;-61
2023/12/14 06:26:07;;;;;;;1.70;1.60;;;15.40;63.10;;;;;;5054178;28;20631;-60
2023/12/14 06:28:32;;;;;;;1.13;1.10;;;15.40;63.10;;;;;;5054743;28;20187;-61
2023/12/14 06:30:58;;;;;;;1.40;1.30;;;15.40;63.20;;;;;;5054902;28;20181;-61
2023/12/14 06:33:23;;;;;;;1.50;1.40;;;15.40;63.20;;;;;;5053695;28;20211;-61
2023/12/14 06:35:49;;;;;;;1.70;1.60;;;15.40;63.20;;;;;;5054631;28;20262;-61
2023/12/14 06:38:15;;;;;;;1.67;1.58;;;15.40;63.20;;;;;;5052511;28;20258;-61
2023/12/14 06:40:41;;;;;;;1.70;1.60;;;15.30;63.20;;;;;;5054525;28;20175;-61
2023/12/14 06:43:06;;;;;;;1.83;1.67;;;15.30;63.30;;;;;;5054468;28;20179;-61
2023/12/14 06:45:32;;;;;;;1.77;1.67;;;15.30;63.30;;;;;;5053705;28;20171;-61
2023/12/14 06:47:57;;;;;;;1.70;1.60;;;15.40;63.40;;;;;;5054513;28;20186;-61
2023/12/14 06:50:23;;;;;;;1.63;1.52;;;15.40;63.30;;;;;;5054244;28;20175;-61
2023/12/14 06:52:48;;;;;;;1.60;1.50;;;15.40;63.20;;;;;;5053478;28;20199;-61
2023/12/14 06:55:14;;;;;;;1.80;1.70;;;15.40;63.20;;;;;;5053853;28;20234;-61
2023/12/14 06:57:43;;;;;;;1.42;1.33;;;15.40;63.20;;;;;;5054543;28;20175;-61
2023/12/14 07:00:09;;;;;;;1.75;1.65;;;15.40;63.20;;;;;;5053648;28;20574;-61
2023/12/14 07:02:34;;;;;;;1.30;1.20;;;15.40;63.20;;;;;;5053751;28;20182;-60
2023/12/14 07:05:00;;;;;;;1.10;1.10;;;15.40;63.30;;;;;;5054128;28;20183;-61
2023/12/14 07:07:26;;;;;;;1.50;1.35;;;15.40;63.30;;;;;;5052968;28;20179;-61
2023/12/14 07:09:51;;;;;;;1.40;1.30;;;15.40;63.20;;;;;;5054300;28;20191;-61
2023/12/14 07:12:17;;;;;;;1.35;1.25;;;15.40;63.30;;;;;;5053777;28;20222;-61
2023/12/14 07:14:43;;;;;;;1.50;1.38;;;15.50;63.50;;;;;;5053126;28;20210;-61
2023/12/14 07:17:08;;;;;;;1.27;1.20;;;15.60;63.40;;;;;;5053828;28;20171;-60
2023/12/14 07:19:35;;;;;;;1.17;1.15;;;15.60;63.40;;;;;;5053565;28;20179;-60
2023/12/14 07:22:01;;;;;;;1.40;1.30;;;15.80;63.10;;;;;;5053019;28;20224;-60
2023/12/14 07:24:26;;;;;;;1.30;1.20;;;16.00;62.80;;;;;;5053768;28;20175;-60
2023/12/14 07:26:52;;;;;;;0.90;0.90;;;16.10;62.70;;;;;;5053763;28;20203;-60
2023/12/14 07:29:17;;;;;;;1.10;1.10;;;16.30;62.20;;;;;;5052881;28;20202;-61
2023/12/14 07:31:43;;;;;;;1.10;1.08;;;16.40;61.90;;;;;;5053573;28;20222;-61
2023/12/14 07:34:08;;;;;;;1.20;1.10;;;16.50;61.70;;;;;;5053496;28;20211;-61
2023/12/14 07:36:34;;;;;;;1.10;1.00;;;16.40;61.50;;;;;;5052509;28;20175;-61
2023/12/14 07:39:01;;;;;;;1.23;1.05;;;16.40;61.60;;;;;;5053634;28;20649;-61
2023/12/14 07:41:29;;;;;;;1.10;1.00;;;16.30;61.70;;;;;;5053293;28;20186;-61
2023/12/14 07:43:55;;;;;;;1.40;1.23;;;16.40;62.60;;;;;;5053128;28;20171;-60
2023/12/14 07:46:21;;;;;;;0.90;0.90;;;16.40;61.80;;;;;;5053112;28;20241;-61
2023/12/14 07:48:46;;;;;;;0.90;0.90;;;16.50;61.70;;;;;;5052299;28;20178;-62
2023/12/14 07:51:12;;;;;;;1.02;0.95;;;16.60;61.50;;;;;;5053144;28;20642;-62
2023/12/14 07:53:37;;;;;;;0.85;0.82;;;16.70;61.40;;;;;;5052806;28;20297;-62
2023/12/14 07:56:03;;;;;;;0.80;0.80;;;16.80;61.10;;;;;;5052374;28;20353;-62
2023/12/14 07:58:29;;;;;;;0.75;0.75;;;16.90;61.00;;;;;;5052972;28;20207;-62
2023/12/14 08:00:54;;;;;;;1.17;1.08;;;17.10;60.80;;;;;;5052991;28;20657;-62
2023/12/14 08:03:20;;;;;;;0.80;0.80;;;17.20;60.50;;;;;;5052163;28;20262;-61
2023/12/14 08:05:45;;;;;;;0.77;0.77;;;17.30;60.40;;;;;;5052896;28;20610;-62
2023/12/14 08:08:11;;;;;;;0.90;0.90;;;17.40;60.00;;;;;;5053010;28;20764;-62
2023/12/14 08:10:36;;;;;;;1.52;0.98;;;17.40;59.90;;;;;;5051943;28;20241;-61
2023/12/14 08:13:02;;;;;;;1.23;0.80;;;17.60;59.70;;;;;;5052493;28;20207;-62
2023/12/14 08:15:28;;;;;;;1.60;1.33;;;17.60;59.60;;;;;;5051975;28;20202;-61
2023/12/14 08:17:54;;;;;;;1.10;1.00;;;17.60;59.60;;;;;;5051856;28;20209;-61
2023/12/14 08:20:20;;;;;;;1.38;1.00;;;17.60;59.70;;;;;;5052339;28;20183;-61
2023/12/14 08:22:45;;;;;;;1.65;1.08;;;17.70;59.80;;;;;;5052776;28;20178;-61
2023/12/14 08:25:13;;;;;;;1.40;1.08;;;17.70;59.70;;;;;;5051861;28;20178;-62
2023/12/14 08:27:39;;;;;;;3.50;1.40;;;17.70;59.80;;;;;;5052761;28;20204;-63
2023/12/14 08:30:05;;;;;;;2.05;1.15;;;17.70;60.20;;;;;;5052644;28;20175;-62
2023/12/14 08:32:30;;;;;;;2.15;1.05;;;17.70;60.30;;;;;;5051377;28;20182;-63
2023/12/14 08:34:56;;;;;;;0.88;0.85;;;17.70;60.10;;;;;;5052327;28;20518;-62
2023/12/14 08:37:21;;;;;;;2.97;1.20;;;17.70;61.10;;;;;;5051944;28;20642;-63
2023/12/14 08:39:47;;;;;;;2.28;1.20;;;17.70;60.30;;;;;;5051900;28;20178;-62
2023/12/14 08:42:13;;;;;;;1.77;1.00;;;17.70;60.40;;;;;;5052527;28;20258;-63
2023/12/14 08:44:39;;;;;;;2.08;0.80;;;17.70;60.40;;;;;;5052045;28;20692;-62
2023/12/14 08:47:05;;;;;;;1.35;1.08;;;17.70;60.50;;;;;;5051528;28;20693;-63
2023/12/14 08:49:31;;;;;;;1.98;1.15;;;17.60;60.60;;;;;;5051733;28;20279;-64
2023/12/14 08:51:56;;;;;;;1.58;1.05;;;17.60;60.50;;;;;;5051357;28;20214;-64
2023/12/14 08:54:22;;;;;;;3.33;1.13;;;17.60;60.60;;;;;;5052000;28;20258;-63
2023/12/14 08:56:47;;;;;;;2.63;1.15;;;17.50;61.60;;;;;;5052333;28;20202;-62
2023/12/14 08:59:13;;;;;;;1.73;0.80;;;17.50;60.90;;;;;;5051363;28;20214;-62
2023/12/14 09:01:39;;;;;;;2.53;1.17;;;17.40;61.00;;;;;;5051785;28;20218;-62
2023/12/14 09:04:04;;;;;;;1.20;1.10;;;17.30;61.20;;;;;;5052023;28;20178;-62
2023/12/14 09:06:30;;;;;;;1.27;1.15;;;17.30;61.20;;;;;;5051024;28;20167;-63
2023/12/14 09:08:55;;;;;;;1.52;1.00;;;17.20;61.10;;;;;;5052242;28;20179;-62
2023/12/14 09:11:21;;;;;;;1.83;1.17;;;17.30;61.30;;;;;;5051892;28;20219;-63
2023/12/14 09:13:46;;;;;;;1.63;0.95;;;17.20;61.30;;;;;;5051353;28;20665;-62
2023/12/14 09:16:12;;;;;;;1.23;1.13;;;17.20;61.30;;;;;;5051935;28;20629;-62
2023/12/14 09:18:37;;;;;;;1.85;1.20;;;17.20;61.40;;;;;;5051617;28;20179;-62
2023/12/14 09:21:04;;;;;;;2.38;0.75;;;17.20;61.30;;;;;;5051349;28;20253;-62
2023/12/14 09:23:29;;;;;;;1.25;1.15;;;17.20;61.20;;;;;;5051781;28;20178;-62
2023/12/14 09:25:56;;;;;;;1.00;0.80;;;17.30;61.20;;;;;;5051884;28;20179;-62
2023/12/14 09:28:21;;;;;;;0.90;0.90;;;17.30;61.30;;;;;;5050862;28;20653;-62
2023/12/14 09:30:47;;;;;;;1.17;1.13;;;17.30;61.20;;;;;;5051902;28;20187;-62
2023/12/14 09:33:12;;;;;;;2.45;1.20;;;17.30;61.40;;;;;;5051710;28;20207;-62
2023/12/14 09:35:38;;;;;;;1.00;0.90;;;17.30;61.20;;;;;;5050725;28;20171;-62
2023/12/14 09:38:05;;;;;;;1.27;1.17;;;17.30;61.10;;;;;;5051709;28;20270;-62
2023/12/14 09:40:31;;;;;;;1.15;0.93;;;17.30;61.10;;;;;;5051449;28;20250;-62
2023/12/14 09:42:56;;;;;;;2.42;0.90;;;17.20;61.20;;;;;;5051200;28;20250;-62
2023/12/14 09:45:28;;;;;;;1.45;0.98;;;17.10;61.10;;;;;;5051415;28;20195;-62
2023/12/14 09:47:53;;;;;;;1.00;0.90;;;17.10;61.40;;;;;;5051646;28;20183;-62
2023/12/14 09:50:20;;;;;;;3.72;0.90;;;17.10;61.60;;;;;;5050679;28;20526;-62
2023/12/14 09:52:48;;;;;;;1.00;0.95;;;17.00;61.60;;;;;;5050442;28;20215;-62
2023/12/14 09:55:14;;;;;;;0.95;0.85;;;17.00;61.60;;;;;;5050464;28;20581;-62
2023/12/14 09:57:40;;;;;;;1.60;1.00;;;17.00;61.70;;;;;;5051644;28;20241;-62
2023/12/14 10:00:10;;;;;;;1.30;0.93;;;17.10;61.80;;;;;;5051517;28;20175;-61
2023/12/14 10:02:35;;;;;;;2.08;1.00;;;17.10;61.70;;;;;;5050841;28;20194;-61
2023/12/14 10:05:01;;;;;;;1.08;0.90;;;17.10;61.60;;;;;;5051480;28;20541;-62
2023/12/14 10:07:26;;;;;;;1.27;0.82;;;17.10;61.50;;;;;;5051311;28;20175;-62
2023/12/14 10:09:56;;;;;;;1.08;0.75;;;17.10;61.40;;;;;;5050867;28;20309;-62
2023/12/14 10:12:23;;;;;;;1.73;1.10;;;17.00;62.40;;;;;;5053729;28;20199;-61
2023/12/14 10:14:48;;;;;;;1.67;0.98;;;17.00;61.70;;;;;;5055054;28;20175;-61
2023/12/14 10:17:22;;;;;;;0.95;0.95;;;16.90;61.70;;;;;;5053103;28;20274;-61
2023/12/14 10:19:48;;;;;;;1.13;1.02;;;16.90;61.90;;;;;;5055012;28;20587;-61
2023/12/14 10:22:17;;;;;;;1.02;0.93;;;16.90;61.90;;;;;;5054923;28;20182;-61
2023/12/14 10:24:44;;;;;;;1.00;0.95;;;16.90;62.00;;;;;;5054102;28;20553;-61
2023/12/14 10:27:11;;;;;;;1.42;0.90;;;16.90;61.90;;;;;;5054989;28;20223;-62
2023/12/14 10:29:39;;;;;;;0.82;0.82;;;16.90;61.90;;;;;;5054371;28;20183;-62
2023/12/14 10:32:06;;;;;;;0.95;0.80;;;16.90;61.90;;;;;;5054344;28;20187;-61
2023/12/14 10:34:35;;;;;;;0.80;0.80;;;17.00;61.80;;;;;;5054335;28;20215;-62
2023/12/14 10:37:01;;;;;;;1.02;0.80;;;17.00;61.80;;;;;;5054679;28;20649;-62
2023/12/14 10:39:27;;;;;;;0.80;0.80;;;17.00;61.80;;;;;;5052649;28;20183;-61
2023/12/14 10:41:54;;;;;;;1.27;1.13;;;16.90;61.80;;;;;;5054563;28;20179;-62
2023/12/14 10:44:20;;;;;;;1.58;1.13;;;16.90;61.90;;;;;;5054253;28;20254;-63
2023/12/14 10:46:48;;;;;;;0.88;0.80;;;16.80;62.00;;;;;;5052688;28;20557;-61
2023/12/14 10:49:13;;;;;;;0.90;0.90;;;16.80;62.00;;;;;;5053210;28;20182;-64
2023/12/14 10:51:42;;;;;;;1.10;1.00;;;16.80;62.00;;;;;;5052891;28;20171;-62
2023/12/14 10:54:08;;;;;;;0.80;0.80;;;16.80;62.00;;;;;;5054299;28;20239;-62
2023/12/14 10:56:33;;;;;;;1.00;0.77;;;16.90;62.00;;;;;;5052941;28;20244;-62
2023/12/14 10:59:00;;;;;;;1.10;1.00;;;16.90;62.00;;;;;;5052433;28;20630;-61
2023/12/14 11:01:26;;;;;;;1.13;1.00;;;16.90;62.00;;;;;;5053904;28;20638;-61
2023/12/14 11:03:56;;;;;;;0.80;0.80;;;16.90;61.90;;;;;;5054336;28;20191;-61
2023/12/14 11:06:30;;;;;;;0.90;0.90;;;16.90;62.80;;;;;;5053217;28;20187;-61
2023/12/14 11:09:05;;;;;;;1.08;0.77;;;16.90;61.90;;;;;;5054145;28;20182;-61
2023/12/14 11:11:39;;;;;;;0.95;0.90;;;16.80;62.00;;;;;;5054008;28;20178;-62
2023/12/14 11:14:05;;;;;;;1.60;1.05;;;16.80;62.10;;;;;;5052388;28;20256;-62
2023/12/14 11:16:31;;;;;;;1.15;1.00;;;16.70;62.10;;;;;;5052319;28;20252;-61
2023/12/14 11:19:21;;;;;;;1.42;1.23;;;16.70;62.10;;;;;;5053946;28;20175;-61
2023/12/14 11:22:09;;;;;;;1.58;1.00;;;16.80;62.20;;;;;;5053050;28;20191;-61
2023/12/14 11:24:35;;;;;;;1.38;1.00;;;16.80;62.10;;;;;;5052044;28;20257;-61
2023/12/14 11:27:04;;;;;;;1.15;1.02;;;16.80;62.10;;;;;;5053075;28;20267;-61
2023/12/14 11:29:30;;;;;;;1.25;0.90;;;16.80;62.00;;;;;;5053531;28;20179;-62
2023/12/14 11:31:55;;;;;;;1.25;1.00;;;16.80;62.00;;;;;;5053548;28;20691;-62
2023/12/14 11:34:24;;;;;;;1.52;0.82;;;16.80;62.00;;;;;;5052577;28;20211;-62
2023/12/14 11:36:49;;;;;;;1.30;1.20;;;16.70;62.10;;;;;;5052623;28;20183;-61
2023/12/14 11:39:15;;;;;;;0.77;0.77;;;16.70;62.20;;;;;;5053364;28;20174;-65
2023/12/14 11:41:40;;;;;;;2.15;1.08;;;16.70;62.30;;;;;;5052664;28;20178;-65
2023/12/14 11:44:06;;;;;;;1.30;0.90;;;16.60;62.10;;;;;;5053367;28;20171;-65
2023/12/14 11:46:32;;;;;;;1.70;0.95;;;16.60;62.10;;;;;;5051727;28;20178;-64
2023/12/14 11:48:58;;;;;;;1.05;0.90;;;16.70;62.20;;;;;;5052708;28;20545;-66
2023/12/14 11:51:25;;;;;;;1.13;0.98;;;16.80;62.10;;;;;;5053151;28;20518;-64
2023/12/14 11:53:51;;;;;;;1.83;1.35;;;16.80;62.10;;;;;;5052946;28;20742;-61
2023/12/14 11:56:20;;;;;;;2.00;1.13;;;16.80;62.20;;;;;;5052437;28;20275;-61
2023/12/14 11:58:46;;;;;;;1.05;0.90;;;16.80;62.20;;;;;;5053283;28;20185;-61
2023/12/14 12:01:16;;;;;;;1.27;1.00;;;16.80;62.10;;;;;;5052974;28;20179;-62
2023/12/14 12:03:43;;;;;;;1.55;0.85;;;16.70;62.00;;;;;;5052508;28;20175;-62
2023/12/14 12:06:08;;;;;;;1.10;1.00;;;16.70;62.20;;;;;;5053281;28;20191;-64
2023/12/14 12:08:40;;;;;;;1.00;1.00;;;16.70;62.40;;;;;;5052585;28;20180;-63
2023/12/14 12:11:06;;;;;;;2.40;1.25;;;16.60;62.20;;;;;;5051899;28;20178;-64
2023/12/14 12:13:32;;;;;;;1.63;1.10;;;16.60;62.40;;;;;;5051147;28;20210;-63
2023/12/14 12:15:57;;;;;;;1.38;1.20;;;16.60;62.40;;;;;;5050469;28;20171;-62
2023/12/14 12:18:23;;;;;;;2.85;1.20;;;16.60;62.30;;;;;;5051555;28;20183;-62
2023/12/14 12:20:48;;;;;;;1.65;1.17;;;16.70;62.20;;;;;;5052724;28;20167;-63
2023/12/14 12:23:14;;;;;;;2.90;1.00;;;16.70;62.00;;;;;;5051579;28;20849;-65
2023/12/14 12:25:39;;;;;;;1.15;1.00;;;16.70;62.00;;;;;;5052468;28;20179;-63
2023/12/14 12:28:05;;;;;;;1.10;1.00;;;16.70;61.90;;;;;;5052464;28;20237;-62
2023/12/14 12:30:31;;;;;;;1.33;1.23;;;16.60;61.80;;;;;;5051635;28;20648;-62
2023/12/14 12:32:56;;;;;;;2.25;1.42;;;16.60;61.80;;;;;;5052329;28;20203;-64
2023/12/14 12:35:22;;;;;;;1.63;1.25;;;16.60;61.80;;;;;;5051220;28;20191;-64
2023/12/14 12:37:53;;;;;;;3.90;1.83;;;16.60;61.70;;;;;;5051858;28;20232;-65
2023/12/14 12:40:22;;;;;;;4.18;1.33;;;16.60;61.80;;;;;;5052230;28;20182;-64
2023/12/14 12:42:48;;;;;;;1.58;1.48;;;16.60;61.80;;;;;;5052411;28;20186;-65